createdAt,value
2023-06-19T14:22:07.365Z,426
2023-06-19T14:23:09.820Z,426
2023-06-19T14:24:12.503Z,426
2023-06-19T14:25:24.360Z,425
2023-06-19T14:26:36.913Z,425
2023-06-19T14:27:38.793Z,424
2023-06-19T14:28:51.429Z,422
2023-06-19T14:30:03.171Z,423
2023-06-19T14:31:15.939Z,421
2023-06-19T14:32:17.934Z,422
2023-06-19T14:33:30.485Z,423
2023-06-19T14:34:42.294Z,424
2023-06-19T14:35:54.962Z,425
2023-06-19T14:36:56.939Z,423
2023-06-19T14:38:09.992Z,426
2023-06-19T14:39:21.870Z,428
2023-06-19T14:40:34.449Z,431
2023-06-19T14:41:36.450Z,432
2023-06-19T14:42:48.960Z,436
2023-06-19T14:44:00.560Z,438
2023-06-19T14:45:03.455Z,441
2023-06-19T14:46:25.934Z,443
2023-06-19T14:47:30.040Z,446
2023-06-19T14:48:32.073Z,448
2023-06-19T14:49:44.454Z,448
2023-06-19T14:50:56.280Z,448
2023-06-19T14:52:08.913Z,450
2023-06-19T14:53:10.903Z,447
2023-06-19T14:54:23.444Z,446
2023-06-19T14:55:35.226Z,444
2023-06-19T14:56:47.933Z,442
2023-06-19T14:57:49.929Z,445
2023-06-19T14:59:02.460Z,443
2023-06-19T15:00:14.151Z,445
2023-06-19T15:01:26.510Z,443
2023-06-19T15:02:28.640Z,443
2023-06-19T15:03:41.538Z,442
2023-06-19T15:05:05.798Z,442
2023-06-19T15:06:00.466Z,440
2023-06-19T15:07:12.262Z,439
2023-06-19T15:08:24.989Z,439
2023-06-19T15:09:27.095Z,438
2023-06-19T15:10:39.472Z,436
2023-06-19T15:11:51.271Z,435
2023-06-19T15:12:53.980Z,433
2023-06-19T15:14:05.839Z,432
2023-06-19T15:15:18.439Z,430
2023-06-19T15:16:30.245Z,429
2023-06-19T15:17:33.021Z,428
2023-06-19T15:18:45.005Z,428
2023-06-19T15:19:57.974Z,426
2023-06-19T15:21:09.671Z,426
2023-06-19T15:22:12.462Z,425
2023-06-19T15:23:24.247Z,422
2023-06-19T15:24:37.037Z,422
2023-06-19T15:25:39.153Z,418
2023-06-19T15:26:51.980Z,416
2023-06-19T15:28:03.741Z,412
2023-06-19T15:29:16.452Z,414
2023-06-19T15:30:18.419Z,414
2023-06-19T15:31:30.952Z,412
2023-06-19T15:32:42.880Z,411
2023-06-19T15:33:55.461Z,414
2023-06-19T15:34:57.383Z,414
2023-06-19T15:36:09.977Z,413
2023-06-19T15:37:21.764Z,415
2023-06-19T15:38:34.466Z,411
2023-06-19T15:39:36.418Z,411
2023-06-19T15:40:48.959Z,412
2023-06-19T15:42:00.730Z,415
2023-06-19T15:43:13.442Z,416
2023-06-19T15:44:15.444Z,414
2023-06-19T15:45:27.967Z,416
2023-06-19T15:46:39.790Z,414
2023-06-19T15:47:42.503Z,415
2023-06-19T15:48:54.316Z,412
2023-06-19T15:50:06.983Z,411
2023-06-19T15:51:18.752Z,411
2023-06-19T15:52:41.003Z,410
2023-06-19T15:53:33.155Z,409
2023-06-19T15:54:45.467Z,408
2023-06-19T15:55:57.219Z,407
2023-06-19T15:56:59.977Z,406
2023-06-19T15:58:11.755Z,407
2023-06-19T15:59:24.480Z,407
2023-06-19T16:00:36.239Z,409
2023-06-19T16:01:38.982Z,410
2023-06-19T16:02:50.908Z,412
2023-06-19T16:04:03.632Z,412
2023-06-19T16:05:05.892Z,413
2023-06-19T16:06:18.449Z,415
2023-06-19T16:07:30.222Z,414
2023-06-19T16:08:43.002Z,412
2023-06-19T16:11:00.491Z,412
2023-06-19T16:12:12.386Z,411
2023-06-19T16:13:14.977Z,411
2023-06-19T16:14:26.746Z,410
2023-06-19T16:15:39.500Z,409
2023-06-19T16:16:51.315Z,411
2023-06-19T16:17:54.022Z,410
2023-06-19T16:19:05.871Z,410
2023-06-19T16:20:18.457Z,410
2023-06-19T16:21:20.398Z,412
2023-06-19T16:22:32.987Z,412
2023-06-19T16:23:44.668Z,410
2023-06-19T16:24:57.000Z,410
2023-06-19T16:25:58.941Z,410
2023-06-19T16:27:11.495Z,412
2023-06-19T16:28:23.255Z,411
2023-06-19T16:29:35.965Z,413
2023-06-19T16:30:37.919Z,412
2023-06-19T16:32:00.487Z,413
2023-06-19T16:33:00.901Z,411
2023-06-19T16:34:13.492Z,412
2023-06-19T16:35:25.239Z,414
2023-06-19T16:36:27.961Z,416
2023-06-19T16:37:39.716Z,415
2023-06-19T16:38:52.498Z,415
2023-06-19T16:39:54.491Z,412
2023-06-19T16:41:07.002Z,412
2023-06-19T16:42:18.730Z,412
2023-06-19T16:43:31.474Z,410
2023-06-19T16:44:33.394Z,409
2023-06-19T16:45:45.964Z,408
2023-06-19T16:46:57.770Z,408
2023-06-19T16:48:10.539Z,406
2023-06-19T16:49:13.994Z,407
2023-06-19T16:50:27.728Z,407
2023-06-19T16:51:39.720Z,406
2023-06-19T16:52:42.475Z,407
2023-06-19T16:53:54.187Z,408
2023-06-19T16:55:06.481Z,410
2023-06-19T16:56:18.214Z,408
2023-06-19T16:57:20.977Z,408
2023-06-19T16:58:32.799Z,408
2023-06-19T16:59:45.508Z,409
2023-06-19T17:00:47.494Z,409
2023-06-19T17:02:00.031Z,408
2023-06-19T17:03:11.901Z,408
2023-06-19T17:04:24.503Z,407
2023-06-19T17:05:26.448Z,406
2023-06-19T17:06:38.999Z,404
2023-06-19T17:07:50.657Z,405
2023-06-19T17:09:03.015Z,407
2023-06-19T17:10:05.098Z,408
2023-06-19T17:11:20.545Z,406
2023-06-19T17:12:32.888Z,407
2023-06-19T17:13:35.476Z,409
2023-06-19T17:14:47.244Z,408
2023-06-19T17:15:59.989Z,406
2023-06-19T17:17:02.041Z,406
2023-06-19T17:18:14.515Z,406
2023-06-19T17:19:26.378Z,406
2023-06-19T17:20:39.006Z,405
2023-06-19T17:21:40.951Z,403
2023-06-19T17:22:53.484Z,403
2023-06-19T17:24:05.262Z,402
2023-06-19T17:25:17.982Z,400
2023-06-19T17:26:19.925Z,397
2023-06-19T17:27:32.504Z,399
2023-06-19T17:28:44.254Z,401
2023-06-19T17:29:56.998Z,401
2023-06-19T17:30:58.985Z,401
2023-06-19T17:32:11.487Z,401
2023-06-19T17:33:23.273Z,402
2023-06-19T17:34:36.012Z,402
2023-06-19T17:35:37.980Z,401
2023-06-19T17:36:51.077Z,399
2023-06-19T17:38:02.846Z,399
2023-06-19T17:39:05.506Z,400
2023-06-19T17:40:17.390Z,402
2023-06-19T17:41:30.115Z,402
2023-06-19T17:42:41.822Z,402
2023-06-19T17:43:44.519Z,401
2023-06-19T17:44:56.314Z,401
2023-06-19T17:46:09.667Z,401
2023-06-19T17:47:11.802Z,399
2023-06-19T17:48:24.524Z,398
2023-06-19T17:49:36.376Z,399
2023-06-19T17:50:49.019Z,400
2023-06-19T17:51:50.969Z,401
2023-06-19T17:53:03.506Z,399
2023-06-19T17:54:15.174Z,397
2023-06-19T17:55:27.514Z,398
2023-06-19T17:56:29.434Z,397
2023-06-19T17:57:42.009Z,399
2023-06-19T17:58:53.747Z,401
2023-06-19T17:59:56.515Z,404
2023-06-19T18:01:08.263Z,404
2023-06-19T18:02:21.075Z,405
2023-06-19T18:03:33.121Z,405
2023-06-19T18:04:36.042Z,406
2023-06-19T18:05:47.827Z,407
2023-06-19T18:07:00.518Z,406
2023-06-19T18:08:12.257Z,404
2023-06-19T18:09:15.014Z,404
2023-06-19T18:10:27.029Z,402
2023-06-19T18:11:39.540Z,404
2023-06-19T18:12:41.498Z,402
2023-06-19T18:13:54.027Z,405
2023-06-19T18:15:05.755Z,405
2023-06-19T18:16:18.562Z,404
2023-06-19T18:17:20.635Z,405
2023-06-19T18:18:33.528Z,406
2023-06-19T18:19:45.302Z,406
2023-06-19T18:20:58.020Z,404
2023-06-19T18:22:00.236Z,404
2023-06-19T18:23:13.032Z,405
2023-06-19T18:24:24.849Z,403
2023-06-19T18:25:27.538Z,403
2023-06-19T18:26:39.372Z,405
2023-06-19T18:27:52.067Z,408
2023-06-19T18:29:03.814Z,410
2023-06-19T18:30:06.544Z,410
2023-06-19T18:31:18.514Z,411
2023-06-19T18:32:31.547Z,411
2023-06-19T18:33:33.472Z,414
2023-06-19T18:34:46.034Z,415
2023-06-19T18:35:57.765Z,416
2023-06-19T18:37:10.530Z,416
2023-06-19T18:38:12.446Z,415
2023-06-19T18:39:25.064Z,415
2023-06-19T18:40:55.951Z,416
2023-06-19T18:41:49.046Z,415
2023-06-19T18:42:50.972Z,418
2023-06-19T18:44:03.746Z,416
2023-06-19T18:45:15.477Z,416
2023-06-19T18:46:28.157Z,416
2023-06-19T18:47:30.237Z,414
2023-06-19T18:48:43.546Z,413
2023-06-19T18:49:55.300Z,412
2023-06-19T18:50:58.049Z,414
2023-06-19T18:52:09.785Z,413
2023-06-19T18:53:22.597Z,413
2023-06-19T18:54:34.345Z,412
2023-06-19T18:55:39.304Z,411
2023-06-19T18:56:51.943Z,411
2023-06-19T18:58:04.569Z,413
2023-06-19T18:59:06.553Z,413
2023-06-19T19:00:19.020Z,414
2023-06-19T19:01:30.803Z,412
2023-06-19T19:02:43.671Z,412
2023-06-19T19:03:45.747Z,413
2023-06-19T19:04:58.534Z,413
2023-06-19T19:06:10.272Z,410
2023-06-19T19:07:13.067Z,410
2023-06-19T19:08:24.813Z,409
2023-06-19T19:09:37.549Z,408
2023-06-19T19:10:50.396Z,408
2023-06-19T19:11:53.056Z,408
2023-06-19T19:13:04.863Z,408
2023-06-19T19:14:17.546Z,408
2023-06-19T19:15:19.415Z,408
2023-06-19T19:16:32.116Z,408
2023-06-19T19:17:44.066Z,409
2023-06-19T19:18:56.575Z,411
2023-06-19T19:19:58.524Z,413
2023-06-19T19:21:11.049Z,415
2023-06-19T19:22:22.796Z,412
2023-06-19T19:23:35.552Z,413
2023-06-19T19:24:37.569Z,413
2023-06-19T19:25:50.038Z,413
2023-06-19T19:27:01.780Z,416
2023-06-19T19:28:14.566Z,416
2023-06-19T19:29:16.549Z,415
2023-06-19T19:30:29.353Z,416
2023-06-19T19:31:41.459Z,414
2023-06-19T19:32:44.152Z,414
2023-06-19T19:33:56.117Z,412
2023-06-19T19:35:09.067Z,414
2023-06-19T19:36:11.203Z,411
2023-06-19T19:37:24.094Z,411
2023-06-19T19:40:02.681Z,410
2023-06-19T19:40:54.994Z,408
2023-06-19T19:42:07.702Z,408
2023-06-19T19:43:09.865Z,409
2023-06-19T19:44:22.614Z,408
2023-06-19T19:45:34.647Z,408
2023-06-19T19:46:47.142Z,407
2023-06-19T19:47:49.133Z,409
2023-06-19T19:49:02.094Z,409
2023-06-19T19:50:14.053Z,409
2023-06-19T19:51:17.163Z,410
2023-06-19T19:52:29.215Z,410
2023-06-19T19:53:42.112Z,410
2023-06-19T19:54:44.320Z,411
2023-06-19T19:55:57.116Z,411
2023-06-19T19:57:09.149Z,410
2023-06-19T19:58:22.167Z,412
2023-06-19T19:59:24.368Z,411
2023-06-19T20:00:37.127Z,412
2023-06-19T20:01:50.500Z,411
2023-06-19T20:02:53.702Z,412
2023-06-19T20:04:06.017Z,413
2023-06-19T20:05:19.121Z,414
2023-06-19T20:06:21.371Z,414
2023-06-19T20:07:34.141Z,413
2023-06-19T20:08:46.202Z,414
2023-06-19T20:09:59.177Z,417
2023-06-19T20:11:01.429Z,419
2023-06-19T20:12:21.410Z,421
2023-06-19T20:13:24.416Z,417
2023-06-19T20:14:37.150Z,418
2023-06-19T20:15:39.438Z,418
2023-06-19T20:16:52.150Z,420
2023-06-19T20:18:23.914Z,422
2023-06-19T20:19:27.632Z,424
2023-06-19T20:20:19.941Z,425
2023-06-19T20:21:32.612Z,430
2023-06-19T20:22:44.712Z,440
2023-06-19T20:23:47.606Z,461
2023-06-19T20:24:59.634Z,495
2023-06-19T20:26:12.650Z,517
2023-06-19T20:27:34.031Z,525
2023-06-19T20:28:27.234Z,524
2023-06-19T20:29:39.372Z,531
2023-06-19T20:30:52.126Z,529
2023-06-19T20:31:54.500Z,538
2023-06-19T20:33:07.213Z,544
2023-06-19T20:34:19.448Z,553
2023-06-19T20:35:22.644Z,565
2023-06-19T20:36:34.666Z,578
2023-06-19T20:37:47.636Z,595
2023-06-19T20:38:59.723Z,619
2023-06-19T20:40:02.627Z,647
2023-06-19T20:41:14.658Z,646
2023-06-19T20:42:27.626Z,640
2023-06-19T20:43:29.870Z,645
2023-06-19T20:44:42.683Z,649
2023-06-19T20:45:54.900Z,650
2023-06-19T20:47:07.654Z,653
2023-06-19T20:48:09.841Z,658
2023-06-19T20:49:22.635Z,657
2023-06-19T20:50:34.728Z,657
2023-06-19T20:51:47.656Z,659
2023-06-19T20:52:49.848Z,663
2023-06-19T20:54:02.625Z,670
2023-06-19T20:55:14.745Z,673
2023-06-19T20:56:17.632Z,675
2023-06-19T20:57:29.685Z,679
2023-06-19T20:58:42.688Z,675
2023-06-19T20:59:44.942Z,677
2023-06-19T21:00:58.164Z,681
2023-06-19T21:02:10.375Z,684
2023-06-19T21:03:23.226Z,686
2023-06-19T21:04:25.525Z,689
2023-06-19T21:05:38.630Z,691
2023-06-19T21:06:50.753Z,695
2023-06-19T21:07:53.663Z,694
2023-06-19T21:09:05.878Z,694
2023-06-19T21:10:18.660Z,693
2023-06-19T21:11:30.801Z,693
2023-06-19T21:12:33.766Z,692
2023-06-19T21:13:45.890Z,690
2023-06-19T21:14:58.677Z,691
2023-06-19T21:16:01.001Z,692
2023-06-19T21:17:14.135Z,690
2023-06-19T21:18:26.216Z,690
2023-06-19T21:19:39.180Z,690
2023-06-19T21:20:41.452Z,688
2023-06-19T21:21:54.142Z,685
2023-06-19T21:23:06.227Z,683
2023-06-19T21:24:09.209Z,683
2023-06-19T21:25:21.356Z,679
2023-06-19T21:26:34.144Z,677
2023-06-19T21:27:47.503Z,674
2023-06-19T21:28:50.667Z,673
2023-06-19T21:30:02.854Z,668
2023-06-19T21:31:15.853Z,664
2023-06-19T21:32:18.127Z,661
2023-06-19T21:33:31.187Z,659
2023-06-19T21:34:43.246Z,653
2023-06-19T21:35:46.150Z,644
2023-06-19T21:36:58.287Z,630
2023-06-19T21:38:11.162Z,622
2023-06-19T21:39:23.241Z,617
2023-06-19T21:40:26.430Z,610
2023-06-19T21:41:38.685Z,609
2023-06-19T21:42:51.768Z,604
2023-06-19T21:43:54.065Z,599
2023-06-19T21:45:07.172Z,595
2023-06-19T21:46:19.365Z,590
2023-06-19T21:47:22.712Z,590
2023-06-19T21:48:34.870Z,586
2023-06-19T21:49:47.657Z,584
2023-06-19T21:50:59.813Z,582
2023-06-19T21:52:02.633Z,580
2023-06-19T21:53:14.806Z,579
2023-06-19T21:54:28.184Z,575
2023-06-19T21:55:30.399Z,571
2023-06-19T21:56:43.176Z,569
2023-06-19T21:58:00.007Z,566
2023-06-19T21:59:03.681Z,563
2023-06-19T22:00:15.836Z,561
2023-06-19T22:01:18.641Z,561
2023-06-19T22:02:31.196Z,558
2023-06-19T22:04:05.213Z,556
2023-06-19T22:04:49.922Z,553
2023-06-19T22:06:02.077Z,552
2023-06-19T22:07:15.184Z,547
2023-06-19T22:08:22.410Z,548
